sensor_id;sensor_type;location;lat;lon;timestamp;P1;durP1;ratioP1;P2;durP2;ratioP2
70455;SDS011;57916;51.996;5.180;2022-08-18T00:01:49;27.43;;;19.40;;
70455;SDS011;57916;51.996;5.180;2022-08-18T00:04:23;27.95;;;19.52;;
70455;SDS011;57916;51.996;5.180;2022-08-18T00:07:02;25.38;;;18.95;;
70455;SDS011;57916;51.996;5.180;2022-08-18T00:09:32;23.15;;;18.98;;
70455;SDS011;57916;51.996;5.180;2022-08-18T00:12:02;27.67;;;19.30;;
70455;SDS011;57916;51.996;5.180;2022-08-18T00:14:31;30.25;;;19.90;;
70455;SDS011;57916;51.996;5.180;2022-08-18T00:16:58;25.85;;;19.05;;
70455;SDS011;57916;51.996;5.180;2022-08-18T00:19:26;25.88;;;18.95;;
70455;SDS011;57916;51.996;5.180;2022-08-18T00:22:15;24.70;;;18.35;;
70455;SDS011;57916;51.996;5.180;2022-08-18T00:24:44;23.98;;;18.55;;
70455;SDS011;57916;51.996;5.180;2022-08-18T00:27:14;30.10;;;18.30;;
70455;SDS011;57916;51.996;5.180;2022-08-18T00:29:48;23.77;;;18.98;;
70455;SDS011;57916;51.996;5.180;2022-08-18T00:32:17;23.80;;;19.40;;
70455;SDS011;57916;51.996;5.180;2022-08-18T00:34:47;23.65;;;19.48;;
70455;SDS011;57916;51.996;5.180;2022-08-18T00:37:14;24.67;;;18.38;;
70455;SDS011;57916;51.996;5.180;2022-08-18T00:39:41;22.73;;;18.23;;
70455;SDS011;57916;51.996;5.180;2022-08-18T00:42:13;24.10;;;18.75;;
70455;SDS011;57916;51.996;5.180;2022-08-18T00:44:57;26.33;;;19.98;;
70455;SDS011;57916;51.996;5.180;2022-08-18T00:47:26;25.23;;;19.17;;
70455;SDS011;57916;51.996;5.180;2022-08-18T00:50:07;23.85;;;19.25;;
70455;SDS011;57916;51.996;5.180;2022-08-18T00:53:08;26.02;;;19.35;;
70455;SDS011;57916;51.996;5.180;2022-08-18T00:55:40;27.50;;;19.38;;
70455;SDS011;57916;51.996;5.180;2022-08-18T00:58:36;26.67;;;19.60;;
70455;SDS011;57916;51.996;5.180;2022-08-18T01:01:07;24.27;;;19.08;;
70455;SDS011;57916;51.996;5.180;2022-08-18T01:03:37;30.45;;;19.25;;
70455;SDS011;57916;51.996;5.180;2022-08-18T01:06:08;26.52;;;18.38;;
70455;SDS011;57916;51.996;5.180;2022-08-18T01:08:42;25.93;;;19.10;;
70455;SDS011;57916;51.996;5.180;2022-08-18T01:11:09;20.90;;;17.73;;
70455;SDS011;57916;51.996;5.180;2022-08-18T01:13:37;22.77;;;17.98;;
70455;SDS011;57916;51.996;5.180;2022-08-18T01:16:06;21.23;;;18.00;;
70455;SDS011;57916;51.996;5.180;2022-08-18T01:18:52;22.30;;;17.67;;
70455;SDS011;57916;51.996;5.180;2022-08-18T01:21:39;26.92;;;18.35;;
70455;SDS011;57916;51.996;5.180;2022-08-18T01:24:16;23.17;;;17.38;;
70455;SDS011;57916;51.996;5.180;2022-08-18T01:26:47;27.00;;;17.67;;
70455;SDS011;57916;51.996;5.180;2022-08-18T01:29:17;22.33;;;18.10;;
70455;SDS011;57916;51.996;5.180;2022-08-18T01:31:51;25.95;;;18.10;;
70455;SDS011;57916;51.996;5.180;2022-08-18T01:34:23;23.95;;;18.52;;
70455;SDS011;57916;51.996;5.180;2022-08-18T01:36:52;24.00;;;18.42;;
70455;SDS011;57916;51.996;5.180;2022-08-18T01:39:20;26.77;;;17.60;;
70455;SDS011;57916;51.996;5.180;2022-08-18T01:42:08;20.23;;;16.48;;
70455;SDS011;57916;51.996;5.180;2022-08-18T01:44:36;18.13;;;15.85;;
70455;SDS011;57916;51.996;5.180;2022-08-18T01:47:10;19.42;;;16.35;;
70455;SDS011;57916;51.996;5.180;2022-08-18T01:49:38;19.98;;;17.20;;
70455;SDS011;57916;51.996;5.180;2022-08-18T01:52:10;21.33;;;17.98;;
70455;SDS011;57916;51.996;5.180;2022-08-18T01:54:43;25.55;;;18.65;;
70455;SDS011;57916;51.996;5.180;2022-08-18T01:57:10;19.05;;;16.80;;
70455;SDS011;57916;51.996;5.180;2022-08-18T01:59:40;19.15;;;15.77;;
70455;SDS011;57916;51.996;5.180;2022-08-18T02:02:08;17.83;;;15.63;;
70455;SDS011;57916;51.996;5.180;2022-08-18T02:04:43;21.10;;;16.65;;
70455;SDS011;57916;51.996;5.180;2022-08-18T02:07:12;22.80;;;17.23;;
70455;SDS011;57916;51.996;5.180;2022-08-18T02:09:40;22.83;;;17.08;;
70455;SDS011;57916;51.996;5.180;2022-08-18T02:12:08;23.17;;;16.90;;
70455;SDS011;57916;51.996;5.180;2022-08-18T02:14:36;25.37;;;17.40;;
70455;SDS011;57916;51.996;5.180;2022-08-18T02:17:04;22.85;;;18.23;;
70455;SDS011;57916;51.996;5.180;2022-08-18T02:19:33;27.48;;;19.50;;
70455;SDS011;57916;51.996;5.180;2022-08-18T02:22:06;28.55;;;18.80;;
70455;SDS011;57916;51.996;5.180;2022-08-18T02:24:34;24.92;;;19.02;;
70455;SDS011;57916;51.996;5.180;2022-08-18T02:27:02;23.98;;;19.20;;
70455;SDS011;57916;51.996;5.180;2022-08-18T02:29:29;27.13;;;19.20;;
70455;SDS011;57916;51.996;5.180;2022-08-18T02:31:56;24.25;;;18.48;;
70455;SDS011;57916;51.996;5.180;2022-08-18T02:34:23;30.47;;;18.63;;
70455;SDS011;57916;51.996;5.180;2022-08-18T02:36:50;26.00;;;18.97;;
70455;SDS011;57916;51.996;5.180;2022-08-18T02:39:18;28.45;;;19.02;;
70455;SDS011;57916;51.996;5.180;2022-08-18T02:41:45;27.70;;;18.63;;
70455;SDS011;57916;51.996;5.180;2022-08-18T02:44:12;29.77;;;18.75;;
70455;SDS011;57916;51.996;5.180;2022-08-18T02:46:39;25.35;;;18.58;;
70455;SDS011;57916;51.996;5.180;2022-08-18T02:49:06;22.55;;;18.10;;
70455;SDS011;57916;51.996;5.180;2022-08-18T02:51:33;24.33;;;18.33;;
70455;SDS011;57916;51.996;5.180;2022-08-18T02:54:00;28.63;;;19.33;;
70455;SDS011;57916;51.996;5.180;2022-08-18T02:56:28;27.85;;;21.38;;
70455;SDS011;57916;51.996;5.180;2022-08-18T02:59:06;28.45;;;20.88;;
70455;SDS011;57916;51.996;5.180;2022-08-18T03:01:37;31.08;;;21.00;;
70455;SDS011;57916;51.996;5.180;2022-08-18T03:04:07;29.52;;;21.92;;
70455;SDS011;57916;51.996;5.180;2022-08-18T03:06:36;31.00;;;23.00;;
70455;SDS011;57916;51.996;5.180;2022-08-18T03:09:05;30.60;;;23.55;;
70455;SDS011;57916;51.996;5.180;2022-08-18T03:11:34;37.08;;;23.42;;
70455;SDS011;57916;51.996;5.180;2022-08-18T03:14:02;36.38;;;23.48;;
70455;SDS011;57916;51.996;5.180;2022-08-18T03:16:31;35.97;;;24.13;;
70455;SDS011;57916;51.996;5.180;2022-08-18T03:18:59;34.97;;;24.00;;
70455;SDS011;57916;51.996;5.180;2022-08-18T03:21:28;34.83;;;21.73;;
70455;SDS011;57916;51.996;5.180;2022-08-18T03:23:57;30.45;;;22.92;;
70455;SDS011;57916;51.996;5.180;2022-08-18T03:26:27;37.72;;;23.20;;
70455;SDS011;57916;51.996;5.180;2022-08-18T03:28:56;34.42;;;23.92;;
70455;SDS011;57916;51.996;5.180;2022-08-18T03:31:26;36.15;;;23.33;;
70455;SDS011;57916;51.996;5.180;2022-08-18T03:33:54;30.95;;;22.25;;
70455;SDS011;57916;51.996;5.180;2022-08-18T03:36:27;34.88;;;23.48;;
70455;SDS011;57916;51.996;5.180;2022-08-18T03:39:06;28.23;;;23.35;;
70455;SDS011;57916;51.996;5.180;2022-08-18T03:41:36;37.85;;;23.63;;
70455;SDS011;57916;51.996;5.180;2022-08-18T03:44:23;37.90;;;25.30;;
70455;SDS011;57916;51.996;5.180;2022-08-18T03:46:50;37.50;;;25.02;;
70455;SDS011;57916;51.996;5.180;2022-08-18T03:49:18;38.92;;;25.88;;
70455;SDS011;57916;51.996;5.180;2022-08-18T03:51:46;40.97;;;25.38;;
70455;SDS011;57916;51.996;5.180;2022-08-18T03:54:14;36.42;;;25.50;;
70455;SDS011;57916;51.996;5.180;2022-08-18T03:56:43;40.72;;;26.75;;
70455;SDS011;57916;51.996;5.180;2022-08-18T03:59:13;33.70;;;24.75;;
70455;SDS011;57916;51.996;5.180;2022-08-18T04:01:46;35.75;;;24.10;;
70455;SDS011;57916;51.996;5.180;2022-08-18T04:04:20;30.77;;;23.83;;
70455;SDS011;57916;51.996;5.180;2022-08-18T04:06:53;32.53;;;23.65;;
70455;SDS011;57916;51.996;5.180;2022-08-18T04:09:31;30.85;;;23.52;;
70455;SDS011;57916;51.996;5.180;2022-08-18T04:12:02;29.65;;;23.17;;
70455;SDS011;57916;51.996;5.180;2022-08-18T04:14:43;30.48;;;22.95;;
70455;SDS011;57916;51.996;5.180;2022-08-18T04:17:14;35.88;;;23.02;;
70455;SDS011;57916;51.996;5.180;2022-08-18T04:19:49;30.35;;;22.90;;
70455;SDS011;57916;51.996;5.180;2022-08-18T04:22:17;32.00;;;22.35;;
70455;SDS011;57916;51.996;5.180;2022-08-18T04:24:44;33.72;;;22.83;;
70455;SDS011;57916;51.996;5.180;2022-08-18T04:27:11;31.58;;;21.10;;
70455;SDS011;57916;51.996;5.180;2022-08-18T04:29:38;31.50;;;23.23;;
70455;SDS011;57916;51.996;5.180;2022-08-18T04:32:05;34.97;;;23.42;;
70455;SDS011;57916;51.996;5.180;2022-08-18T04:34:33;28.40;;;22.83;;
70455;SDS011;57916;51.996;5.180;2022-08-18T04:37:00;28.40;;;22.10;;
70455;SDS011;57916;51.996;5.180;2022-08-18T04:39:28;30.52;;;22.20;;
70455;SDS011;57916;51.996;5.180;2022-08-18T04:41:55;27.98;;;22.02;;
70455;SDS011;57916;51.996;5.180;2022-08-18T04:44:24;30.27;;;22.73;;
70455;SDS011;57916;51.996;5.180;2022-08-18T04:46:52;26.88;;;20.65;;
70455;SDS011;57916;51.996;5.180;2022-08-18T04:49:20;26.25;;;20.63;;
70455;SDS011;57916;51.996;5.180;2022-08-18T04:51:52;28.10;;;21.02;;
70455;SDS011;57916;51.996;5.180;2022-08-18T04:54:58;29.73;;;22.27;;
70455;SDS011;57916;51.996;5.180;2022-08-18T04:57:27;29.98;;;21.38;;
70455;SDS011;57916;51.996;5.180;2022-08-18T04:59:59;31.85;;;22.00;;
70455;SDS011;57916;51.996;5.180;2022-08-18T05:02:26;32.37;;;22.40;;
70455;SDS011;57916;51.996;5.180;2022-08-18T05:04:53;28.65;;;22.42;;
70455;SDS011;57916;51.996;5.180;2022-08-18T05:07:20;33.40;;;22.87;;
70455;SDS011;57916;51.996;5.180;2022-08-18T05:09:52;31.05;;;23.35;;
70455;SDS011;57916;51.996;5.180;2022-08-18T05:12:20;32.28;;;21.92;;
70455;SDS011;57916;51.996;5.180;2022-08-18T05:14:51;30.53;;;21.50;;
70455;SDS011;57916;51.996;5.180;2022-08-18T05:17:19;29.23;;;21.67;;
70455;SDS011;57916;51.996;5.180;2022-08-18T05:19:46;33.97;;;21.52;;
70455;SDS011;57916;51.996;5.180;2022-08-18T05:22:15;30.00;;;21.67;;
70455;SDS011;57916;51.996;5.180;2022-08-18T05:24:54;28.80;;;20.85;;
70455;SDS011;57916;51.996;5.180;2022-08-18T05:27:21;35.00;;;21.27;;
70455;SDS011;57916;51.996;5.180;2022-08-18T05:29:47;31.88;;;21.20;;
70455;SDS011;57916;51.996;5.180;2022-08-18T05:32:17;28.55;;;21.75;;
70455;SDS011;57916;51.996;5.180;2022-08-18T05:35:10;30.83;;;20.80;;
70455;SDS011;57916;51.996;5.180;2022-08-18T05:40:37;32.58;;;21.48;;
70455;SDS011;57916;51.996;5.180;2022-08-18T05:43:04;32.50;;;20.85;;
70455;SDS011;57916;51.996;5.180;2022-08-18T05:45:33;31.35;;;20.30;;
70455;SDS011;57916;51.996;5.180;2022-08-18T05:48:00;26.27;;;20.33;;
70455;SDS011;57916;51.996;5.180;2022-08-18T05:50:28;26.13;;;19.67;;
70455;SDS011;57916;51.996;5.180;2022-08-18T05:53:13;25.02;;;20.20;;
70455;SDS011;57916;51.996;5.180;2022-08-18T05:55:57;29.35;;;20.20;;
70455;SDS011;57916;51.996;5.180;2022-08-18T05:58:48;21.67;;;18.40;;
70455;SDS011;57916;51.996;5.180;2022-08-18T06:01:17;22.80;;;17.15;;
70455;SDS011;57916;51.996;5.180;2022-08-18T06:04:04;21.77;;;15.95;;
70455;SDS011;57916;51.996;5.180;2022-08-18T06:06:35;21.08;;;15.68;;
70455;SDS011;57916;51.996;5.180;2022-08-18T06:11:35;16.83;;;13.00;;
70455;SDS011;57916;51.996;5.180;2022-08-18T06:14:02;19.75;;;11.50;;
70455;SDS011;57916;51.996;5.180;2022-08-18T06:25:26;13.00;;;8.93;;
70455;SDS011;57916;51.996;5.180;2022-08-18T06:28:08;13.38;;;8.63;;
70455;SDS011;57916;51.996;5.180;2022-08-18T06:30:43;11.35;;;7.57;;
70455;SDS011;57916;51.996;5.180;2022-08-18T06:38:38;7.97;;;7.10;;
70455;SDS011;57916;51.996;5.180;2022-08-18T06:41:21;7.17;;;6.30;;
70455;SDS011;57916;51.996;5.180;2022-08-18T06:46:47;9.05;;;5.78;;
70455;SDS011;57916;51.996;5.180;2022-08-18T06:52:17;6.40;;;5.13;;
70455;SDS011;57916;51.996;5.180;2022-08-18T06:54:50;7.63;;;5.50;;
70455;SDS011;57916;51.996;5.180;2022-08-18T06:57:29;5.55;;;5.05;;
70455;SDS011;57916;51.996;5.180;2022-08-18T07:00:22;9.07;;;5.05;;
70455;SDS011;57916;51.996;5.180;2022-08-18T07:02:57;8.73;;;4.72;;
70455;SDS011;57916;51.996;5.180;2022-08-18T07:05:32;7.25;;;4.93;;
70455;SDS011;57916;51.996;5.180;2022-08-18T07:10:48;4.82;;;4.38;;
70455;SDS011;57916;51.996;5.180;2022-08-18T07:13:25;6.90;;;4.35;;
70455;SDS011;57916;51.996;5.180;2022-08-18T07:16:13;7.10;;;4.40;;
70455;SDS011;57916;51.996;5.180;2022-08-18T07:18:43;7.68;;;4.38;;
70455;SDS011;57916;51.996;5.180;2022-08-18T07:21:25;4.88;;;3.90;;
70455;SDS011;57916;51.996;5.180;2022-08-18T07:24:01;7.57;;;4.40;;
70455;SDS011;57916;51.996;5.180;2022-08-18T07:27:07;6.78;;;4.18;;
70455;SDS011;57916;51.996;5.180;2022-08-18T07:29:38;4.47;;;3.95;;
70455;SDS011;57916;51.996;5.180;2022-08-18T07:32:12;5.63;;;3.70;;
70455;SDS011;57916;51.996;5.180;2022-08-18T07:34:51;5.70;;;3.60;;
70455;SDS011;57916;51.996;5.180;2022-08-18T07:44:04;6.15;;;3.58;;
70455;SDS011;57916;51.996;5.180;2022-08-18T07:46:54;5.57;;;4.00;;
70455;SDS011;57916;51.996;5.180;2022-08-18T07:49:28;5.05;;;4.32;;
70455;SDS011;57916;51.996;5.180;2022-08-18T08:11:55;8.80;;;5.10;;
70455;SDS011;57916;51.996;5.180;2022-08-18T08:14:43;7.13;;;5.53;;
70455;SDS011;57916;51.996;5.180;2022-08-18T08:17:17;8.33;;;4.70;;
70455;SDS011;57916;51.996;5.180;2022-08-18T08:22:39;5.68;;;5.05;;
70455;SDS011;57916;51.996;5.180;2022-08-18T08:31:15;5.65;;;5.22;;
70455;SDS011;57916;51.996;5.180;2022-08-18T08:37:01;6.63;;;5.15;;
70455;SDS011;57916;51.996;5.180;2022-08-18T08:42:23;8.98;;;5.00;;
70455;SDS011;57916;51.996;5.180;2022-08-18T08:45:08;5.22;;;4.13;;
70455;SDS011;57916;51.996;5.180;2022-08-18T08:53:29;4.18;;;3.88;;
70455;SDS011;57916;51.996;5.180;2022-08-18T08:56:05;4.00;;;3.70;;
70455;SDS011;57916;51.996;5.180;2022-08-18T09:01:09;4.05;;;3.80;;
70455;SDS011;57916;51.996;5.180;2022-08-18T09:03:48;4.85;;;3.60;;
70455;SDS011;57916;51.996;5.180;2022-08-18T09:17:36;4.85;;;4.10;;
70455;SDS011;57916;51.996;5.180;2022-08-18T09:23:04;5.03;;;4.45;;
70455;SDS011;57916;51.996;5.180;2022-08-18T09:36:47;8.32;;;6.00;;
70455;SDS011;57916;51.996;5.180;2022-08-18T09:38:57;6.00;;;5.40;;
70455;SDS011;57916;51.996;5.180;2022-08-18T09:41:56;5.00;;;4.60;;
70455;SDS011;57916;51.996;5.180;2022-08-18T09:49:49;4.13;;;3.25;;
70455;SDS011;57916;51.996;5.180;2022-08-18T09:54:51;3.30;;;3.10;;
70455;SDS011;57916;51.996;5.180;2022-08-18T09:57:25;6.03;;;3.22;;
70455;SDS011;57916;51.996;5.180;2022-08-18T10:11:21;6.72;;;3.60;;
70455;SDS011;57916;51.996;5.180;2022-08-18T10:16:22;3.53;;;3.30;;
70455;SDS011;57916;51.996;5.180;2022-08-18T10:25:06;3.20;;;3.00;;
70455;SDS011;57916;51.996;5.180;2022-08-18T10:27:50;3.05;;;2.95;;
70455;SDS011;57916;51.996;5.180;2022-08-18T10:30:42;4.15;;;3.20;;
70455;SDS011;57916;51.996;5.180;2022-08-18T10:34:06;4.03;;;3.38;;
70455;SDS011;57916;51.996;5.180;2022-08-18T10:36:47;6.75;;;3.42;;
70455;SDS011;57916;51.996;5.180;2022-08-18T10:39:26;4.75;;;3.65;;
70455;SDS011;57916;51.996;5.180;2022-08-18T10:44:44;4.40;;;4.00;;
70455;SDS011;57916;51.996;5.180;2022-08-18T10:47:46;4.10;;;3.70;;
70455;SDS011;57916;51.996;5.180;2022-08-18T10:50:21;4.25;;;3.80;;
70455;SDS011;57916;51.996;5.180;2022-08-18T10:56:00;5.20;;;3.77;;
70455;SDS011;57916;51.996;5.180;2022-08-18T11:04:20;5.20;;;3.85;;
70455;SDS011;57916;51.996;5.180;2022-08-18T11:09:33;5.35;;;3.45;;
70455;SDS011;57916;51.996;5.180;2022-08-18T11:12:06;11.90;;;3.13;;
70455;SDS011;57916;51.996;5.180;2022-08-18T11:17:35;5.05;;;3.15;;
70455;SDS011;57916;51.996;5.180;2022-08-18T11:20:08;3.40;;;3.10;;
70455;SDS011;57916;51.996;5.180;2022-08-18T11:22:47;3.25;;;2.70;;
70455;SDS011;57916;51.996;5.180;2022-08-18T11:25:27;3.20;;;2.60;;
70455;SDS011;57916;51.996;5.180;2022-08-18T11:27:55;3.70;;;3.08;;
70455;SDS011;57916;51.996;5.180;2022-08-18T11:30:24;2.90;;;2.80;;
70455;SDS011;57916;51.996;5.180;2022-08-18T11:33:01;3.10;;;2.90;;
70455;SDS011;57916;51.996;5.180;2022-08-18T11:35:30;3.10;;;2.90;;
70455;SDS011;57916;51.996;5.180;2022-08-18T11:38:00;4.07;;;3.22;;
70455;SDS011;57916;51.996;5.180;2022-08-18T11:40:31;3.70;;;3.40;;
70455;SDS011;57916;51.996;5.180;2022-08-18T11:43:28;3.55;;;3.30;;
70455;SDS011;57916;51.996;5.180;2022-08-18T11:48:55;3.70;;;3.50;;
70455;SDS011;57916;51.996;5.180;2022-08-18T11:51:29;3.75;;;3.45;;
70455;SDS011;57916;51.996;5.180;2022-08-18T11:53:59;6.78;;;3.80;;
70455;SDS011;57916;51.996;5.180;2022-08-18T11:56:44;4.05;;;3.42;;
70455;SDS011;57916;51.996;5.180;2022-08-18T12:02:18;3.25;;;3.05;;
70455;SDS011;57916;51.996;5.180;2022-08-18T12:05:05;3.30;;;3.00;;
70455;SDS011;57916;51.996;5.180;2022-08-18T12:07:35;3.20;;;2.90;;
70455;SDS011;57916;51.996;5.180;2022-08-18T12:10:25;3.35;;;2.90;;
70455;SDS011;57916;51.996;5.180;2022-08-18T12:12:54;3.45;;;2.80;;
70455;SDS011;57916;51.996;5.180;2022-08-18T12:15:30;4.40;;;2.97;;
70455;SDS011;57916;51.996;5.180;2022-08-18T12:18:11;3.47;;;2.90;;
70455;SDS011;57916;51.996;5.180;2022-08-18T12:20:56;3.00;;;2.80;;
70455;SDS011;57916;51.996;5.180;2022-08-18T12:23:24;3.15;;;2.95;;
70455;SDS011;57916;51.996;5.180;2022-08-18T12:25:51;3.03;;;2.83;;
70455;SDS011;57916;51.996;5.180;2022-08-18T12:28:18;3.28;;;3.10;;
70455;SDS011;57916;51.996;5.180;2022-08-18T12:30:48;2.88;;;2.65;;
70455;SDS011;57916;51.996;5.180;2022-08-18T12:33:22;3.55;;;2.97;;
70455;SDS011;57916;51.996;5.180;2022-08-18T12:35:59;3.28;;;3.03;;
70455;SDS011;57916;51.996;5.180;2022-08-18T12:38:30;2.50;;;2.40;;
70455;SDS011;57916;51.996;5.180;2022-08-18T12:41:01;2.90;;;2.75;;
70455;SDS011;57916;51.996;5.180;2022-08-18T12:43:30;3.03;;;2.72;;
70455;SDS011;57916;51.996;5.180;2022-08-18T12:45:59;2.72;;;2.60;;
70455;SDS011;57916;51.996;5.180;2022-08-18T12:48:26;2.80;;;2.60;;
70455;SDS011;57916;51.996;5.180;2022-08-18T12:50:57;3.17;;;2.90;;
70455;SDS011;57916;51.996;5.180;2022-08-18T12:53:26;4.03;;;3.00;;
70455;SDS011;57916;51.996;5.180;2022-08-18T12:56:07;3.20;;;2.90;;
70455;SDS011;57916;51.996;5.180;2022-08-18T12:58:47;3.30;;;3.00;;
70455;SDS011;57916;51.996;5.180;2022-08-18T13:01:16;3.63;;;2.63;;
70455;SDS011;57916;51.996;5.180;2022-08-18T13:03:45;3.85;;;2.80;;
70455;SDS011;57916;51.996;5.180;2022-08-18T13:06:33;4.17;;;2.70;;
70455;SDS011;57916;51.996;5.180;2022-08-18T13:09:06;2.85;;;2.50;;
70455;SDS011;57916;51.996;5.180;2022-08-18T13:11:53;2.72;;;2.50;;
70455;SDS011;57916;51.996;5.180;2022-08-18T13:14:20;2.70;;;2.50;;
70455;SDS011;57916;51.996;5.180;2022-08-18T13:16:48;2.60;;;2.40;;
70455;SDS011;57916;51.996;5.180;2022-08-18T13:19:20;4.03;;;2.40;;
70455;SDS011;57916;51.996;5.180;2022-08-18T13:21:47;2.57;;;2.37;;
70455;SDS011;57916;51.996;5.180;2022-08-18T13:24:15;2.50;;;2.30;;
70455;SDS011;57916;51.996;5.180;2022-08-18T13:26:47;2.65;;;2.45;;
70455;SDS011;57916;51.996;5.180;2022-08-18T13:29:17;3.33;;;2.45;;
70455;SDS011;57916;51.996;5.180;2022-08-18T13:31:45;2.90;;;2.70;;
70455;SDS011;57916;51.996;5.180;2022-08-18T13:34:25;2.72;;;2.53;;
70455;SDS011;57916;51.996;5.180;2022-08-18T13:36:55;4.63;;;2.47;;
70455;SDS011;57916;51.996;5.180;2022-08-18T13:39:23;2.90;;;2.70;;
70455;SDS011;57916;51.996;5.180;2022-08-18T13:41:59;2.70;;;2.50;;
70455;SDS011;57916;51.996;5.180;2022-08-18T13:44:46;2.88;;;2.40;;
70455;SDS011;57916;51.996;5.180;2022-08-18T13:47:18;2.33;;;2.20;;
70455;SDS011;57916;51.996;5.180;2022-08-18T13:49:47;2.72;;;2.53;;
70455;SDS011;57916;51.996;5.180;2022-08-18T13:52:24;2.70;;;2.50;;
70455;SDS011;57916;51.996;5.180;2022-08-18T13:55:04;3.28;;;2.60;;
70455;SDS011;57916;51.996;5.180;2022-08-18T13:57:39;4.60;;;2.90;;
70455;SDS011;57916;51.996;5.180;2022-08-18T14:00:17;2.60;;;2.40;;
70455;SDS011;57916;51.996;5.180;2022-08-18T14:02:56;2.90;;;2.70;;
70455;SDS011;57916;51.996;5.180;2022-08-18T14:05:28;2.70;;;2.50;;
70455;SDS011;57916;51.996;5.180;2022-08-18T14:08:16;2.58;;;2.40;;
70455;SDS011;57916;51.996;5.180;2022-08-18T14:10:47;3.47;;;2.43;;
70455;SDS011;57916;51.996;5.180;2022-08-18T14:13:16;2.60;;;2.40;;
70455;SDS011;57916;51.996;5.180;2022-08-18T14:15:51;5.15;;;2.17;;
70455;SDS011;57916;51.996;5.180;2022-08-18T14:18:22;4.60;;;2.28;;
70455;SDS011;57916;51.996;5.180;2022-08-18T14:20:56;5.72;;;2.40;;
70455;SDS011;57916;51.996;5.180;2022-08-18T14:23:48;2.70;;;2.47;;
70455;SDS011;57916;51.996;5.180;2022-08-18T14:26:35;3.10;;;2.80;;
70455;SDS011;57916;51.996;5.180;2022-08-18T14:29:16;3.47;;;2.42;;
70455;SDS011;57916;51.996;5.180;2022-08-18T14:32:04;4.75;;;2.70;;
70455;SDS011;57916;51.996;5.180;2022-08-18T14:34:32;2.40;;;2.20;;
70455;SDS011;57916;51.996;5.180;2022-08-18T14:37:01;2.93;;;2.70;;
70455;SDS011;57916;51.996;5.180;2022-08-18T14:39:28;6.50;;;2.70;;
70455;SDS011;57916;51.996;5.180;2022-08-18T14:41:55;2.70;;;2.50;;
70455;SDS011;57916;51.996;5.180;2022-08-18T14:44:23;2.92;;;2.67;;
70455;SDS011;57916;51.996;5.180;2022-08-18T14:46:57;3.47;;;2.75;;
70455;SDS011;57916;51.996;5.180;2022-08-18T14:49:25;2.80;;;2.35;;
70455;SDS011;57916;51.996;5.180;2022-08-18T14:51:55;2.83;;;2.63;;
70455;SDS011;57916;51.996;5.180;2022-08-18T14:54:24;2.70;;;2.50;;
70455;SDS011;57916;51.996;5.180;2022-08-18T14:56:55;4.18;;;2.88;;
70455;SDS011;57916;51.996;5.180;2022-08-18T14:59:23;3.10;;;2.83;;
70455;SDS011;57916;51.996;5.180;2022-08-18T15:01:51;2.83;;;2.65;;
70455;SDS011;57916;51.996;5.180;2022-08-18T15:04:19;3.10;;;2.80;;
70455;SDS011;57916;51.996;5.180;2022-08-18T15:06:47;2.90;;;2.60;;
70455;SDS011;57916;51.996;5.180;2022-08-18T15:09:22;5.55;;;2.50;;
70455;SDS011;57916;51.996;5.180;2022-08-18T15:11:56;5.57;;;2.60;;
70455;SDS011;57916;51.996;5.180;2022-08-18T15:14:24;5.60;;;2.42;;
70455;SDS011;57916;51.996;5.180;2022-08-18T15:17:02;2.65;;;2.35;;
70455;SDS011;57916;51.996;5.180;2022-08-18T15:19:38;3.03;;;2.55;;
70455;SDS011;57916;51.996;5.180;2022-08-18T15:22:26;2.50;;;2.40;;
70455;SDS011;57916;51.996;5.180;2022-08-18T15:25:13;2.45;;;2.35;;
70455;SDS011;57916;51.996;5.180;2022-08-18T15:27:59;2.70;;;2.50;;
70455;SDS011;57916;51.996;5.180;2022-08-18T15:30:26;3.50;;;2.47;;
70455;SDS011;57916;51.996;5.180;2022-08-18T15:32:53;2.55;;;2.35;;
70455;SDS011;57916;51.996;5.180;2022-08-18T15:35:20;3.10;;;2.22;;
70455;SDS011;57916;51.996;5.180;2022-08-18T15:37:47;2.60;;;2.40;;
70455;SDS011;57916;51.996;5.180;2022-08-18T15:40:19;3.03;;;2.72;;
70455;SDS011;57916;51.996;5.180;2022-08-18T15:43:04;5.10;;;2.33;;
70455;SDS011;57916;51.996;5.180;2022-08-18T15:45:36;4.10;;;2.47;;
70455;SDS011;57916;51.996;5.180;2022-08-18T15:48:17;2.65;;;2.55;;
70455;SDS011;57916;51.996;5.180;2022-08-18T15:50:45;3.33;;;2.55;;
70455;SDS011;57916;51.996;5.180;2022-08-18T15:53:20;3.75;;;2.80;;
70455;SDS011;57916;51.996;5.180;2022-08-18T15:55:49;3.53;;;3.00;;
70455;SDS011;57916;51.996;5.180;2022-08-18T15:58:16;3.00;;;2.67;;
70455;SDS011;57916;51.996;5.180;2022-08-18T16:00:47;4.18;;;2.60;;
70455;SDS011;57916;51.996;5.180;2022-08-18T16:03:16;2.90;;;2.60;;
70455;SDS011;57916;51.996;5.180;2022-08-18T16:05:50;2.78;;;2.63;;
70455;SDS011;57916;51.996;5.180;2022-08-18T16:08:19;3.25;;;2.95;;
70455;SDS011;57916;51.996;5.180;2022-08-18T16:10:49;3.70;;;2.92;;
70455;SDS011;57916;51.996;5.180;2022-08-18T16:13:17;3.03;;;2.70;;
70455;SDS011;57916;51.996;5.180;2022-08-18T16:15:45;4.60;;;2.70;;
70455;SDS011;57916;51.996;5.180;2022-08-18T16:18:16;2.90;;;2.70;;
70455;SDS011;57916;51.996;5.180;2022-08-18T16:20:44;2.40;;;2.20;;
70455;SDS011;57916;51.996;5.180;2022-08-18T16:23:11;3.42;;;2.40;;
70455;SDS011;57916;51.996;5.180;2022-08-18T16:25:39;2.55;;;2.30;;
70455;SDS011;57916;51.996;5.180;2022-08-18T16:28:07;2.30;;;2.10;;
70455;SDS011;57916;51.996;5.180;2022-08-18T16:30:35;4.82;;;2.50;;
70455;SDS011;57916;51.996;5.180;2022-08-18T16:33:03;4.30;;;2.70;;
70455;SDS011;57916;51.996;5.180;2022-08-18T16:35:32;3.00;;;2.30;;
70455;SDS011;57916;51.996;5.180;2022-08-18T16:38:07;2.45;;;2.25;;
70455;SDS011;57916;51.996;5.180;2022-08-18T16:40:35;2.15;;;2.03;;
70455;SDS011;57916;51.996;5.180;2022-08-18T16:43:03;2.20;;;2.10;;
70455;SDS011;57916;51.996;5.180;2022-08-18T16:45:31;2.22;;;2.10;;
70455;SDS011;57916;51.996;5.180;2022-08-18T16:48:01;2.60;;;2.00;;
70455;SDS011;57916;51.996;5.180;2022-08-18T16:50:28;5.30;;;2.28;;
70455;SDS011;57916;51.996;5.180;2022-08-18T16:52:56;3.47;;;2.20;;
70455;SDS011;57916;51.996;5.180;2022-08-18T16:55:23;2.78;;;2.30;;
70455;SDS011;57916;51.996;5.180;2022-08-18T16:57:50;3.43;;;2.50;;
70455;SDS011;57916;51.996;5.180;2022-08-18T17:00:40;2.65;;;2.45;;
70455;SDS011;57916;51.996;5.180;2022-08-18T17:03:26;6.32;;;3.03;;
70455;SDS011;57916;51.996;5.180;2022-08-18T17:06:13;2.40;;;2.30;;
70455;SDS011;57916;51.996;5.180;2022-08-18T17:08:42;2.67;;;2.47;;
70455;SDS011;57916;51.996;5.180;2022-08-18T17:11:11;2.75;;;2.55;;
70455;SDS011;57916;51.996;5.180;2022-08-18T17:13:41;4.07;;;2.38;;
70455;SDS011;57916;51.996;5.180;2022-08-18T17:16:09;2.60;;;2.13;;
70455;SDS011;57916;51.996;5.180;2022-08-18T17:18:37;2.38;;;2.17;;
70455;SDS011;57916;51.996;5.180;2022-08-18T17:21:05;2.40;;;2.30;;
70455;SDS011;57916;51.996;5.180;2022-08-18T17:23:34;2.33;;;2.20;;
70455;SDS011;57916;51.996;5.180;2022-08-18T17:26:06;3.70;;;2.15;;
70455;SDS011;57916;51.996;5.180;2022-08-18T17:28:40;2.55;;;2.20;;
70455;SDS011;57916;51.996;5.180;2022-08-18T17:31:20;2.42;;;2.22;;
70455;SDS011;57916;51.996;5.180;2022-08-18T17:33:50;2.83;;;2.30;;
70455;SDS011;57916;51.996;5.180;2022-08-18T17:36:22;2.60;;;2.42;;
70455;SDS011;57916;51.996;5.180;2022-08-18T17:39:00;2.40;;;2.20;;
70455;SDS011;57916;51.996;5.180;2022-08-18T17:41:30;5.53;;;2.13;;
70455;SDS011;57916;51.996;5.180;2022-08-18T17:44:18;2.30;;;2.10;;
70455;SDS011;57916;51.996;5.180;2022-08-18T17:46:56;4.30;;;2.40;;